Higgins Lake, MI (48627)

3:07 PM EST on November 27, 2014 (GMT -0500)
Higgins Lake Point Detroit | Change Station
CLOSE
Current Station
Personal Weather Station
Location: Roscommon, MI
Elevation: 1165 ft
Nearby Weather Stations

Elev 1165 ft 44.47 °N, 84.71 °W | Updated 4 seconds ago

Overcast
Overcast
21.9 °F
Feels Like 11 °F
N
10.3
Wind Variable Wind from NNE
Gusts 13.2 mph

Today
High -- | Low -- °F
--% Chance of Precip.
Yesterday
High -- | Low -- °F
Precip. -- in
7:50 AM 5:02 PM
Waxing Crescent, 32% visible
Pressure 30.18 in
Visibility 7.0 miles
Clouds Overcast 3200 ft
Windchill 11 °F
Dew Point 18 °F
Humidity 85%
Rainfall 0.00 in
Snow Depth Not available.
UV 0 out of 12
Pollen .10 out of 12
Air Quality Not available.
Flu Activity Not available.
SPECI KHTL 272001Z AUTO 32012KT 7SM -SN OVC032 M06/M10 A3018 RMK AO2 SNB1957 P0000 T10611100

More Conditions Fewer Conditions

Pressure 30.18 in
Visibility 7.0 miles
Clouds Overcast 3200 ft
Windchill 11 °F
Dew Point 18 °F
Humidity 85%
Rainfall 0.00 in
Snow Depth Not available.
UV 0 out of 12
Pollen .10 out of 12
Air Quality Not available.
Flu Activity Not available.
SPECI KHTL 272001Z AUTO 32012KT 7SM -SN OVC032 M06/M10 A3018 RMK AO2 SNB1957 P0000 T10611100

More Conditions Fewer Conditions

Nowcast | as of 3:00 PM EST on November 27, 2014

At 4 PM...mostly cloudy. Scattered snow showers. Temperature 21. Northwest winds 13 mph. At 6 PM...mostly cloudy. Scattered snow showers. Temperature 19. Northwest winds 10 mph. At 8 PM...mostly cloudy. Temperature 17. Northwest winds 8 mph. At 10 PM...mostly cloudy. Temperature 16. Northwest winds 7 mph.

×

10-Day Weather Forecast

Almanac

Astronomy

Nov. 27, 2014 Rise Set
Actual Time
Civil Twilight
Nautical Twilight
Astronomical Twilight
Moon
Length of Visible Light
Length of Day
Tomorrow will be .
, % of the Moon is Illuminated

Today's Extremes

State Highs State Lows

Community

WunderPhotos

Upload Photos

1,774,095 photos uploaded!

WunderBlogs® & News

Nearby

Air Quality

  Air Quality AQ Index Pollutant
Not available.

Snow Depth

Station Depth Elevation

Earthquake Activity

City Distance Mag. Time & Date
Minimum magnitude displayed is 2.5.

Coastal Water Temperatures

Place Temperature

Nearby Weather Stations